createdAt,value
2023-01-13T00:02:34.000Z,22.53
2023-01-13T00:07:35.000Z,23.34
2023-01-13T00:12:34.000Z,22.84
2023-01-13T00:17:35.000Z,21.85
2023-01-13T00:27:35.000Z,23
2023-01-13T00:32:35.000Z,22.26
2023-01-13T00:37:35.000Z,22.72
2023-01-13T00:42:34.000Z,22.45
2023-01-13T00:47:35.000Z,22.45
2023-01-13T00:52:35.000Z,23.05
2023-01-13T00:57:35.000Z,23.57
2023-01-13T01:02:34.000Z,23.69
2023-01-13T01:07:35.000Z,23.26
2023-01-13T01:12:34.000Z,24.18
2023-01-13T01:17:35.000Z,24.19
2023-01-13T01:22:35.000Z,24.1
2023-01-13T01:27:35.000Z,24.16
2023-01-13T01:32:34.000Z,24.46
2023-01-13T01:37:35.000Z,24.26
2023-01-13T01:42:34.000Z,24.18
2023-01-13T01:47:35.000Z,24.94
2023-01-13T01:52:34.000Z,25.44
2023-01-13T01:57:34.000Z,24.9
2023-01-13T02:02:35.000Z,24.9
2023-01-13T02:07:35.000Z,26.8
2023-01-13T02:12:35.000Z,26.26
2023-01-13T02:17:35.000Z,25.78
2023-01-13T02:22:35.000Z,25.79
2023-01-13T02:27:35.000Z,27.15
2023-01-13T02:32:35.000Z,26.24
2023-01-13T02:37:35.000Z,26.34
2023-01-13T02:42:35.000Z,26.11
2023-01-13T02:47:35.000Z,26.51
2023-01-13T02:52:35.000Z,28.5
2023-01-13T02:57:35.000Z,28.27
2023-01-13T03:02:35.000Z,28.2
2023-01-13T03:12:35.000Z,29.58
2023-01-13T03:17:35.000Z,26.81
2023-01-13T03:22:35.000Z,28.67
2023-01-13T03:27:35.000Z,27.01
2023-01-13T03:32:35.000Z,29.88
2023-01-13T03:37:35.000Z,30.29
2023-01-13T03:42:35.000Z,28.76
2023-01-13T03:47:34.000Z,29.09
2023-01-13T03:52:35.000Z,28.53
2023-01-13T03:57:35.000Z,30.17
2023-01-13T04:02:34.000Z,28.82
2023-01-13T04:07:34.000Z,28.82
2023-01-13T04:12:35.000Z,29.39
2023-01-13T04:17:35.000Z,27.14
2023-01-13T04:22:35.000Z,27.84
2023-01-13T04:27:35.000Z,27.57
2023-01-13T04:32:35.000Z,25.81
2023-01-13T04:37:34.000Z,24.72
2023-01-13T04:42:34.000Z,23.44
2023-01-13T04:47:35.000Z,24.8
2023-01-13T04:52:34.000Z,24.2
2023-01-13T04:57:35.000Z,24.18
2023-01-13T05:02:35.000Z,24.59
2023-01-13T05:07:35.000Z,23.55
2023-01-13T05:12:35.000Z,22.6
2023-01-13T05:22:34.000Z,21.97
2023-01-13T05:27:35.000Z,23.81
2023-01-13T05:32:34.000Z,24.48
2023-01-13T05:37:35.000Z,24.48
2023-01-13T05:42:34.000Z,24.76
2023-01-13T05:47:35.000Z,23.13
2023-01-13T06:02:35.000Z,21.53
2023-01-13T06:07:35.000Z,21.42
2023-01-13T06:12:35.000Z,21.61
2023-01-13T06:17:35.000Z,20.57
2023-01-13T06:22:35.000Z,21.89
2023-01-13T06:27:34.000Z,20.2
2023-01-13T06:32:35.000Z,19.08
2023-01-13T06:37:34.000Z,19.03
2023-01-13T06:42:35.000Z,18.94
2023-01-13T06:47:34.000Z,18.06
2023-01-13T06:52:34.000Z,18.06
2023-01-13T06:57:35.000Z,17.18
2023-01-13T07:02:35.000Z,17.61
2023-01-13T07:07:35.000Z,16.98
2023-01-13T07:17:35.000Z,16.33
2023-01-13T07:22:35.000Z,15.71
2023-01-13T07:27:35.000Z,15.71
2023-01-13T07:32:35.000Z,15.03
2023-01-13T07:37:35.000Z,15.51
2023-01-13T07:42:34.000Z,14.36
2023-01-13T07:47:35.000Z,14.04
2023-01-13T07:52:35.000Z,14.42
2023-01-13T07:57:35.000Z,14.52
2023-01-13T08:02:35.000Z,14.35
2023-01-13T08:07:35.000Z,14.04
2023-01-13T08:12:35.000Z,14.42
2023-01-13T08:17:35.000Z,13.4
2023-01-13T08:22:34.000Z,13.65
2023-01-13T08:27:35.000Z,13.36
2023-01-13T08:32:34.000Z,13.27
2023-01-13T08:37:35.000Z,13.66
2023-01-13T08:42:35.000Z,13.66
2023-01-13T08:47:34.000Z,14.66
2023-01-13T08:52:35.000Z,13.21
2023-01-13T08:57:34.000Z,14.82
2023-01-13T09:02:35.000Z,15.02
2023-01-13T09:07:35.000Z,16.51
2023-01-13T09:12:35.000Z,13.27
2023-01-13T09:17:35.000Z,13.25
2023-01-13T09:22:34.000Z,12.05
2023-01-13T09:27:35.000Z,12.87
2023-01-13T09:32:35.000Z,12.17
2023-01-13T09:37:35.000Z,13.1
2023-01-13T09:42:35.000Z,32.33
2023-01-13T09:47:35.000Z,12.18
2023-01-13T09:52:37.000Z,12.18
2023-01-13T10:02:35.000Z,10.49
2023-01-13T10:07:35.000Z,10.91
2023-01-13T10:12:35.000Z,11.23
2023-01-13T10:17:34.000Z,11.76
2023-01-13T10:22:34.000Z,13
2023-01-13T10:27:35.000Z,10.78
2023-01-13T10:32:35.000Z,10.55
2023-01-13T10:37:34.000Z,12.21
2023-01-13T10:42:35.000Z,11.58
2023-01-13T10:47:35.000Z,11.58
2023-01-13T10:52:35.000Z,11.89
2023-01-13T10:57:35.000Z,12.51
2023-01-13T11:02:36.000Z,14.95
2023-01-13T11:07:38.000Z,16.48
2023-01-13T11:12:34.000Z,13.05
2023-01-13T11:17:34.000Z,10.79
2023-01-13T11:22:34.000Z,11.05
2023-01-13T11:27:35.000Z,11.01
2023-01-13T11:32:34.000Z,9.82
2023-01-13T11:37:35.000Z,11.96
2023-01-13T11:42:35.000Z,12.59
2023-01-13T11:47:35.000Z,11.38
2023-01-13T11:52:34.000Z,11.82
2023-01-13T11:57:34.000Z,11.82
2023-01-13T12:02:34.000Z,12.02
2023-01-13T12:07:34.000Z,11.97
2023-01-13T12:12:35.000Z,12.91
2023-01-13T12:17:34.000Z,13.47
2023-01-13T12:22:34.000Z,12.46
2023-01-13T12:27:35.000Z,12.26
2023-01-13T12:32:35.000Z,10.67
2023-01-13T12:37:35.000Z,12.03
2023-01-13T12:42:35.000Z,12.03
2023-01-13T12:47:35.000Z,12.38
2023-01-13T12:52:34.000Z,12.01
2023-01-13T13:02:35.000Z,12.75
2023-01-13T13:07:35.000Z,12.51
2023-01-13T13:12:35.000Z,12.33
2023-01-13T13:17:34.000Z,12.74
2023-01-13T13:22:35.000Z,12.74
2023-01-13T13:27:35.000Z,12.39
2023-01-13T13:32:35.000Z,12.96
2023-01-13T13:37:34.000Z,13.35
2023-01-13T13:42:35.000Z,13.64
2023-01-13T13:47:34.000Z,14.68
2023-01-13T13:52:35.000Z,14.18
2023-01-13T13:57:35.000Z,13.34
2023-01-13T14:02:35.000Z,13.95
2023-01-13T14:07:35.000Z,13.4
2023-01-13T14:12:34.000Z,13.28
2023-01-13T14:17:35.000Z,13.17
2023-01-13T14:22:35.000Z,13.54
2023-01-13T14:27:34.000Z,14.61
2023-01-13T14:32:35.000Z,14.61
2023-01-13T14:37:34.000Z,14.58
2023-01-13T14:42:35.000Z,14.46
2023-01-13T14:47:35.000Z,15.21
2023-01-13T14:52:35.000Z,15.26
2023-01-13T14:57:34.000Z,16.19
2023-01-13T15:02:35.000Z,16.79
2023-01-13T15:07:35.000Z,17.79
2023-01-13T15:12:37.000Z,18.69
2023-01-13T15:17:35.000Z,18.08
2023-01-13T15:22:35.000Z,17.6
2023-01-13T15:27:34.000Z,18.41
2023-01-13T15:32:35.000Z,18.05
2023-01-13T15:37:34.000Z,20.24
2023-01-13T15:42:35.000Z,19.65
2023-01-13T15:47:35.000Z,19.65
2023-01-13T15:52:35.000Z,19.65
2023-01-13T15:57:35.000Z,20.32
2023-01-13T16:02:35.000Z,20.63
2023-01-13T16:07:35.000Z,19.89
2023-01-13T16:12:35.000Z,19.55
2023-01-13T16:17:34.000Z,19.17
2023-01-13T16:22:35.000Z,20.37
2023-01-13T16:27:34.000Z,19.67
2023-01-13T16:32:35.000Z,19.11
2023-01-13T16:37:35.000Z,18.97
2023-01-13T16:42:35.000Z,19.11
2023-01-13T16:47:34.000Z,17.48
2023-01-13T16:52:35.000Z,18.53
2023-01-13T16:57:35.000Z,20.8
2023-01-13T17:02:35.000Z,20.8
2023-01-13T17:07:35.000Z,20
2023-01-13T17:12:35.000Z,20.06
2023-01-13T17:17:34.000Z,19.06
2023-01-13T17:22:35.000Z,18.92
2023-01-13T17:27:35.000Z,19.4
2023-01-13T17:32:35.000Z,19.33
2023-01-13T17:37:34.000Z,20.13
2023-01-13T17:42:35.000Z,19.44
2023-01-13T17:47:35.000Z,18.89
2023-01-13T17:52:35.000Z,18.94
2023-01-13T17:57:34.000Z,19.46
2023-01-13T18:02:35.000Z,19.3
2023-01-13T18:07:35.000Z,20.29
2023-01-13T18:12:34.000Z,19.91
2023-01-13T18:17:35.000Z,19.91
2023-01-13T18:22:35.000Z,19.94
2023-01-13T18:27:35.000Z,20.28
2023-01-13T18:32:35.000Z,18.64
2023-01-13T18:37:35.000Z,21.01
2023-01-13T18:42:34.000Z,20.87
2023-01-13T18:52:34.000Z,21.17
2023-01-13T18:57:35.000Z,21.25
2023-01-13T19:02:35.000Z,21.12
2023-01-13T19:07:35.000Z,20.21
2023-01-13T19:12:35.000Z,19.49
2023-01-13T19:17:35.000Z,20.24
2023-01-13T19:22:34.000Z,20.24
2023-01-13T19:27:35.000Z,19.23
2023-01-13T19:37:35.000Z,18.52
2023-01-13T19:42:34.000Z,19.72
2023-01-13T19:47:35.000Z,19.53
2023-01-13T19:52:35.000Z,19.03
2023-01-13T19:57:34.000Z,19.1
2023-01-13T20:02:35.000Z,18.46
2023-01-13T20:07:35.000Z,18.86
2023-01-13T20:12:35.000Z,17.57
2023-01-13T20:17:35.000Z,17.57
2023-01-13T20:27:35.000Z,18.03
2023-01-13T20:32:35.000Z,17.44
2023-01-13T20:42:35.000Z,16.54
2023-01-13T20:47:35.000Z,16.43
2023-01-13T20:52:34.000Z,16.75
2023-01-13T20:57:35.000Z,16.5
2023-01-13T21:02:35.000Z,16.38
2023-01-13T21:07:34.000Z,15.73
2023-01-13T21:12:34.000Z,15.81
2023-01-13T21:17:34.000Z,17.42
2023-01-13T21:22:35.000Z,16.28
2023-01-13T21:27:35.000Z,17.62
2023-01-13T21:32:35.000Z,17.03
2023-01-13T21:37:35.000Z,17.03
2023-01-13T21:47:34.000Z,18.12
2023-01-13T21:52:34.000Z,18.12
2023-01-13T21:57:37.000Z,17.35
2023-01-13T22:02:35.000Z,17.88
2023-01-13T22:07:35.000Z,19.46
2023-01-13T22:12:34.000Z,18.79
2023-01-13T22:17:35.000Z,19.04
2023-01-13T22:22:34.000Z,20.37
2023-01-13T22:27:35.000Z,20.17
2023-01-13T22:32:34.000Z,20.12
2023-01-13T22:37:35.000Z,21.36
2023-01-13T22:42:35.000Z,22.28
2023-01-13T22:47:34.000Z,20.97
2023-01-13T22:52:35.000Z,22
2023-01-13T22:57:34.000Z,21.7
2023-01-13T23:02:35.000Z,21.7
2023-01-13T23:07:34.000Z,23.13
2023-01-13T23:12:35.000Z,24.85
2023-01-13T23:17:35.000Z,25.07
2023-01-13T23:22:35.000Z,27.12
2023-01-13T23:27:35.000Z,27.33
2023-01-13T23:37:35.000Z,28.44
2023-01-13T23:42:35.000Z,29.23
2023-01-13T23:52:34.000Z,30.37
2023-01-13T23:57:35.000Z,31.43
